sensor_id;sensor_type;location;lat;lon;timestamp;P1;durP1;ratioP1;P2;durP2;ratioP2
32491;SDS011;20605;49.742;18.802;2022-07-10T00:01:56;5.05;;;4.55;;
32491;SDS011;20605;49.742;18.802;2022-07-10T00:04:23;5.78;;;4.85;;
32491;SDS011;20605;49.742;18.802;2022-07-10T00:06:49;6.28;;;4.92;;
32491;SDS011;20605;49.742;18.802;2022-07-10T00:09:16;5.80;;;5.20;;
32491;SDS011;20605;49.742;18.802;2022-07-10T00:11:43;6.60;;;5.22;;
32491;SDS011;20605;49.742;18.802;2022-07-10T00:14:09;7.35;;;5.78;;
32491;SDS011;20605;49.742;18.802;2022-07-10T00:16:36;6.87;;;5.40;;
32491;SDS011;20605;49.742;18.802;2022-07-10T00:19:02;6.97;;;5.30;;
32491;SDS011;20605;49.742;18.802;2022-07-10T00:21:29;5.03;;;4.42;;
32491;SDS011;20605;49.742;18.802;2022-07-10T00:23:56;5.72;;;5.12;;
32491;SDS011;20605;49.742;18.802;2022-07-10T00:26:22;5.87;;;4.55;;
32491;SDS011;20605;49.742;18.802;2022-07-10T00:28:49;5.53;;;4.92;;
32491;SDS011;20605;49.742;18.802;2022-07-10T00:31:16;6.40;;;5.72;;
32491;SDS011;20605;49.742;18.802;2022-07-10T00:33:43;6.28;;;5.10;;
32491;SDS011;20605;49.742;18.802;2022-07-10T00:36:09;5.72;;;4.78;;
32491;SDS011;20605;49.742;18.802;2022-07-10T00:38:36;6.33;;;5.72;;
32491;SDS011;20605;49.742;18.802;2022-07-10T00:41:03;7.55;;;5.15;;
32491;SDS011;20605;49.742;18.802;2022-07-10T00:43:30;5.03;;;4.62;;
32491;SDS011;20605;49.742;18.802;2022-07-10T00:46:18;6.80;;;4.97;;
32491;SDS011;20605;49.742;18.802;2022-07-10T00:48:46;6.35;;;4.75;;
32491;SDS011;20605;49.742;18.802;2022-07-10T00:51:15;5.78;;;4.90;;
32491;SDS011;20605;49.742;18.802;2022-07-10T00:53:45;6.05;;;5.33;;
32491;SDS011;20605;49.742;18.802;2022-07-10T00:56:13;5.58;;;5.08;;
32491;SDS011;20605;49.742;18.802;2022-07-10T00:58:47;7.85;;;5.20;;
32491;SDS011;20605;49.742;18.802;2022-07-10T01:01:15;5.30;;;4.67;;
32491;SDS011;20605;49.742;18.802;2022-07-10T01:03:43;4.97;;;4.45;;
32491;SDS011;20605;49.742;18.802;2022-07-10T01:06:13;8.48;;;4.92;;
32491;SDS011;20605;49.742;18.802;2022-07-10T01:08:42;5.45;;;4.95;;
32491;SDS011;20605;49.742;18.802;2022-07-10T01:11:10;7.25;;;5.15;;
32491;SDS011;20605;49.742;18.802;2022-07-10T01:13:38;6.80;;;5.45;;
32491;SDS011;20605;49.742;18.802;2022-07-10T01:16:06;7.87;;;5.20;;
32491;SDS011;20605;49.742;18.802;2022-07-10T01:18:33;5.25;;;4.75;;
32491;SDS011;20605;49.742;18.802;2022-07-10T01:20:59;5.50;;;4.80;;
32491;SDS011;20605;49.742;18.802;2022-07-10T01:23:26;6.92;;;4.62;;
32491;SDS011;20605;49.742;18.802;2022-07-10T01:25:53;5.75;;;5.00;;
32491;SDS011;20605;49.742;18.802;2022-07-10T01:28:20;5.62;;;4.90;;
32491;SDS011;20605;49.742;18.802;2022-07-10T01:30:48;5.75;;;5.12;;
32491;SDS011;20605;49.742;18.802;2022-07-10T01:33:16;7.58;;;5.30;;
32491;SDS011;20605;49.742;18.802;2022-07-10T01:35:42;6.53;;;5.75;;
32491;SDS011;20605;49.742;18.802;2022-07-10T01:38:09;5.00;;;4.47;;
32491;SDS011;20605;49.742;18.802;2022-07-10T01:40:36;6.37;;;4.90;;
32491;SDS011;20605;49.742;18.802;2022-07-10T01:43:03;5.28;;;4.78;;
32491;SDS011;20605;49.742;18.802;2022-07-10T01:45:29;5.65;;;4.92;;
32491;SDS011;20605;49.742;18.802;2022-07-10T01:47:56;6.45;;;4.75;;
32491;SDS011;20605;49.742;18.802;2022-07-10T01:50:23;5.35;;;4.85;;
32491;SDS011;20605;49.742;18.802;2022-07-10T01:52:49;7.33;;;5.40;;
32491;SDS011;20605;49.742;18.802;2022-07-10T01:55:16;5.83;;;5.17;;
32491;SDS011;20605;49.742;18.802;2022-07-10T01:57:45;5.75;;;4.67;;
32491;SDS011;20605;49.742;18.802;2022-07-10T02:00:11;5.92;;;4.80;;
32491;SDS011;20605;49.742;18.802;2022-07-10T02:02:38;5.22;;;4.72;;
32491;SDS011;20605;49.742;18.802;2022-07-10T02:05:05;6.17;;;4.87;;
32491;SDS011;20605;49.742;18.802;2022-07-10T02:07:32;5.72;;;5.17;;
32491;SDS011;20605;49.742;18.802;2022-07-10T02:09:59;6.72;;;5.03;;
32491;SDS011;20605;49.742;18.802;2022-07-10T02:12:25;5.83;;;5.03;;
32491;SDS011;20605;49.742;18.802;2022-07-10T02:14:52;6.08;;;5.45;;
32491;SDS011;20605;49.742;18.802;2022-07-10T02:17:19;9.10;;;5.30;;
32491;SDS011;20605;49.742;18.802;2022-07-10T02:19:45;5.00;;;4.50;;
32491;SDS011;20605;49.742;18.802;2022-07-10T02:22:12;5.50;;;4.70;;
32491;SDS011;20605;49.742;18.802;2022-07-10T02:24:39;5.67;;;5.10;;
32491;SDS011;20605;49.742;18.802;2022-07-10T02:27:05;6.75;;;4.90;;
32491;SDS011;20605;49.742;18.802;2022-07-10T02:29:32;5.95;;;5.42;;
32491;SDS011;20605;49.742;18.802;2022-07-10T02:31:59;6.05;;;5.03;;
32491;SDS011;20605;49.742;18.802;2022-07-10T02:34:26;6.35;;;5.17;;
32491;SDS011;20605;49.742;18.802;2022-07-10T02:36:52;7.78;;;4.90;;
32491;SDS011;20605;49.742;18.802;2022-07-10T02:39:19;5.42;;;4.70;;
32491;SDS011;20605;49.742;18.802;2022-07-10T02:41:47;5.25;;;4.75;;
32491;SDS011;20605;49.742;18.802;2022-07-10T02:44:14;5.53;;;4.30;;
32491;SDS011;20605;49.742;18.802;2022-07-10T02:46:40;5.28;;;4.75;;
32491;SDS011;20605;49.742;18.802;2022-07-10T02:49:08;5.58;;;4.90;;
32491;SDS011;20605;49.742;18.802;2022-07-10T02:51:34;6.47;;;4.92;;
32491;SDS011;20605;49.742;18.802;2022-07-10T02:54:01;6.05;;;4.50;;
32491;SDS011;20605;49.742;18.802;2022-07-10T02:56:28;6.47;;;4.10;;
32491;SDS011;20605;49.742;18.802;2022-07-10T02:58:55;4.30;;;3.35;;
32491;SDS011;20605;49.742;18.802;2022-07-10T03:01:21;4.33;;;3.52;;
32491;SDS011;20605;49.742;18.802;2022-07-10T03:03:48;3.62;;;3.25;;
32491;SDS011;20605;49.742;18.802;2022-07-10T03:06:14;3.60;;;3.30;;
32491;SDS011;20605;49.742;18.802;2022-07-10T03:08:41;4.00;;;2.92;;
32491;SDS011;20605;49.742;18.802;2022-07-10T03:11:08;5.55;;;3.30;;
32491;SDS011;20605;49.742;18.802;2022-07-10T03:13:35;9.38;;;3.58;;
32491;SDS011;20605;49.742;18.802;2022-07-10T03:16:01;4.33;;;2.67;;
32491;SDS011;20605;49.742;18.802;2022-07-10T03:18:29;6.28;;;3.30;;
32491;SDS011;20605;49.742;18.802;2022-07-10T03:20:55;5.10;;;3.15;;
32491;SDS011;20605;49.742;18.802;2022-07-10T03:23:22;4.10;;;3.08;;
32491;SDS011;20605;49.742;18.802;2022-07-10T03:25:48;4.78;;;3.17;;
32491;SDS011;20605;49.742;18.802;2022-07-10T03:28:17;3.80;;;3.50;;
32491;SDS011;20605;49.742;18.802;2022-07-10T03:30:44;5.95;;;4.28;;
32491;SDS011;20605;49.742;18.802;2022-07-10T03:33:11;6.03;;;3.80;;
32491;SDS011;20605;49.742;18.802;2022-07-10T03:35:37;5.97;;;3.45;;
32491;SDS011;20605;49.742;18.802;2022-07-10T03:38:04;3.47;;;3.17;;
32491;SDS011;20605;49.742;18.802;2022-07-10T03:40:31;3.80;;;3.40;;
32491;SDS011;20605;49.742;18.802;2022-07-10T03:42:57;4.92;;;3.47;;
32491;SDS011;20605;49.742;18.802;2022-07-10T03:45:24;5.62;;;3.35;;
32491;SDS011;20605;49.742;18.802;2022-07-10T03:47:51;3.08;;;2.85;;
32491;SDS011;20605;49.742;18.802;2022-07-10T03:50:17;3.27;;;2.80;;
32491;SDS011;20605;49.742;18.802;2022-07-10T03:52:44;4.70;;;3.42;;
32491;SDS011;20605;49.742;18.802;2022-07-10T03:55:12;5.08;;;3.00;;
32491;SDS011;20605;49.742;18.802;2022-07-10T03:57:38;3.98;;;3.20;;
32491;SDS011;20605;49.742;18.802;2022-07-10T04:00:27;5.20;;;3.27;;
32491;SDS011;20605;49.742;18.802;2022-07-10T04:02:57;3.95;;;3.20;;
32491;SDS011;20605;49.742;18.802;2022-07-10T04:05:31;3.75;;;2.90;;
32491;SDS011;20605;49.742;18.802;2022-07-10T04:07:59;3.67;;;2.70;;
32491;SDS011;20605;49.742;18.802;2022-07-10T04:10:27;4.78;;;3.27;;
32491;SDS011;20605;49.742;18.802;2022-07-10T04:12:55;3.02;;;2.72;;
32491;SDS011;20605;49.742;18.802;2022-07-10T04:15:22;3.47;;;2.95;;
32491;SDS011;20605;49.742;18.802;2022-07-10T04:17:50;4.08;;;3.10;;
32491;SDS011;20605;49.742;18.802;2022-07-10T04:20:17;5.67;;;3.40;;
32491;SDS011;20605;49.742;18.802;2022-07-10T04:22:45;8.53;;;3.40;;
32491;SDS011;20605;49.742;18.802;2022-07-10T04:25:11;6.00;;;3.25;;
32491;SDS011;20605;49.742;18.802;2022-07-10T04:27:39;9.90;;;3.47;;
32491;SDS011;20605;49.742;18.802;2022-07-10T04:30:06;4.67;;;3.30;;
32491;SDS011;20605;49.742;18.802;2022-07-10T04:32:34;5.47;;;3.27;;
32491;SDS011;20605;49.742;18.802;2022-07-10T04:35:00;4.42;;;3.33;;
32491;SDS011;20605;49.742;18.802;2022-07-10T04:37:27;3.67;;;3.15;;
32491;SDS011;20605;49.742;18.802;2022-07-10T04:39:54;3.20;;;2.90;;
32491;SDS011;20605;49.742;18.802;2022-07-10T04:42:21;4.47;;;3.40;;
32491;SDS011;20605;49.742;18.802;2022-07-10T04:44:50;4.80;;;3.42;;
32491;SDS011;20605;49.742;18.802;2022-07-10T04:47:16;4.87;;;3.10;;
32491;SDS011;20605;49.742;18.802;2022-07-10T04:49:43;5.65;;;3.25;;
32491;SDS011;20605;49.742;18.802;2022-07-10T04:52:10;4.30;;;3.10;;
32491;SDS011;20605;49.742;18.802;2022-07-10T04:54:37;6.03;;;3.37;;
32491;SDS011;20605;49.742;18.802;2022-07-10T04:57:03;4.15;;;3.67;;
32491;SDS011;20605;49.742;18.802;2022-07-10T04:59:31;3.70;;;3.40;;
32491;SDS011;20605;49.742;18.802;2022-07-10T05:01:57;4.10;;;2.83;;
32491;SDS011;20605;49.742;18.802;2022-07-10T05:04:24;3.65;;;3.12;;
32491;SDS011;20605;49.742;18.802;2022-07-10T05:06:51;3.85;;;3.22;;
32491;SDS011;20605;49.742;18.802;2022-07-10T05:09:18;7.08;;;4.35;;
32491;SDS011;20605;49.742;18.802;2022-07-10T05:11:47;6.33;;;3.62;;
32491;SDS011;20605;49.742;18.802;2022-07-10T05:14:16;3.55;;;2.90;;
32491;SDS011;20605;49.742;18.802;2022-07-10T05:16:43;6.65;;;3.62;;
32491;SDS011;20605;49.742;18.802;2022-07-10T05:19:09;6.50;;;3.42;;
32491;SDS011;20605;49.742;18.802;2022-07-10T05:21:36;5.17;;;3.90;;
32491;SDS011;20605;49.742;18.802;2022-07-10T05:24:03;3.45;;;2.98;;
32491;SDS011;20605;49.742;18.802;2022-07-10T05:26:29;3.52;;;3.15;;
32491;SDS011;20605;49.742;18.802;2022-07-10T05:28:56;4.47;;;2.85;;
32491;SDS011;20605;49.742;18.802;2022-07-10T05:31:23;5.05;;;3.10;;
32491;SDS011;20605;49.742;18.802;2022-07-10T05:36:46;3.12;;;2.60;;
32491;SDS011;20605;49.742;18.802;2022-07-10T05:39:12;2.95;;;2.70;;
32491;SDS011;20605;49.742;18.802;2022-07-10T05:41:39;3.42;;;2.17;;
32491;SDS011;20605;49.742;18.802;2022-07-10T05:44:06;2.87;;;2.50;;
32491;SDS011;20605;49.742;18.802;2022-07-10T05:46:32;3.08;;;2.70;;
32491;SDS011;20605;49.742;18.802;2022-07-10T05:48:59;2.60;;;2.40;;
32491;SDS011;20605;49.742;18.802;2022-07-10T05:51:27;3.33;;;2.10;;
32491;SDS011;20605;49.742;18.802;2022-07-10T05:53:53;2.00;;;1.82;;
32491;SDS011;20605;49.742;18.802;2022-07-10T05:56:20;1.98;;;1.87;;
32491;SDS011;20605;49.742;18.802;2022-07-10T05:58:47;2.12;;;1.98;;
32491;SDS011;20605;49.742;18.802;2022-07-10T06:01:15;3.00;;;2.10;;
32491;SDS011;20605;49.742;18.802;2022-07-10T06:03:42;2.98;;;2.50;;
32491;SDS011;20605;49.742;18.802;2022-07-10T06:06:08;2.22;;;2.00;;
32491;SDS011;20605;49.742;18.802;2022-07-10T06:08:35;2.58;;;2.37;;
32491;SDS011;20605;49.742;18.802;2022-07-10T06:11:02;2.30;;;2.20;;
32491;SDS011;20605;49.742;18.802;2022-07-10T06:13:29;2.05;;;1.95;;
32491;SDS011;20605;49.742;18.802;2022-07-10T06:15:56;3.20;;;2.00;;
32491;SDS011;20605;49.742;18.802;2022-07-10T06:18:22;3.50;;;2.10;;
32491;SDS011;20605;49.742;18.802;2022-07-10T06:20:49;1.80;;;1.70;;
32491;SDS011;20605;49.742;18.802;2022-07-10T06:23:16;2.30;;;1.70;;
32491;SDS011;20605;49.742;18.802;2022-07-10T06:25:43;2.35;;;1.70;;
32491;SDS011;20605;49.742;18.802;2022-07-10T06:28:09;3.58;;;2.00;;
32491;SDS011;20605;49.742;18.802;2022-07-10T06:30:36;3.67;;;2.05;;
32491;SDS011;20605;49.742;18.802;2022-07-10T06:33:03;2.00;;;1.80;;
32491;SDS011;20605;49.742;18.802;2022-07-10T06:35:30;2.17;;;2.00;;
32491;SDS011;20605;49.742;18.802;2022-07-10T06:37:56;2.08;;;1.87;;
32491;SDS011;20605;49.742;18.802;2022-07-10T06:40:26;2.30;;;2.10;;
32491;SDS011;20605;49.742;18.802;2022-07-10T06:42:54;2.00;;;1.90;;
32491;SDS011;20605;49.742;18.802;2022-07-10T06:45:21;2.27;;;2.08;;
32491;SDS011;20605;49.742;18.802;2022-07-10T06:47:48;2.25;;;2.00;;
32491;SDS011;20605;49.742;18.802;2022-07-10T06:50:28;3.45;;;2.17;;
32491;SDS011;20605;49.742;18.802;2022-07-10T06:52:57;3.40;;;2.00;;
32491;SDS011;20605;49.742;18.802;2022-07-10T06:55:25;2.70;;;1.87;;
32491;SDS011;20605;49.742;18.802;2022-07-10T06:57:54;1.98;;;1.77;;
32491;SDS011;20605;49.742;18.802;2022-07-10T07:00:21;3.75;;;2.30;;
32491;SDS011;20605;49.742;18.802;2022-07-10T07:02:49;4.10;;;2.12;;
32491;SDS011;20605;49.742;18.802;2022-07-10T07:05:19;2.50;;;2.20;;
32491;SDS011;20605;49.742;18.802;2022-07-10T07:17:10;3.22;;;2.20;;
32491;SDS011;20605;49.742;18.802;2022-07-10T07:19:46;3.95;;;2.15;;
32491;SDS011;20605;49.742;18.802;2022-07-10T07:22:34;2.60;;;2.35;;
32491;SDS011;20605;49.742;18.802;2022-07-10T07:25:41;2.37;;;2.02;;
32491;SDS011;20605;49.742;18.802;2022-07-10T07:31:12;3.55;;;2.47;;
32491;SDS011;20605;49.742;18.802;2022-07-10T07:33:46;4.33;;;2.40;;
32491;SDS011;20605;49.742;18.802;2022-07-10T07:36:28;3.47;;;2.40;;
32491;SDS011;20605;49.742;18.802;2022-07-10T07:42:22;2.85;;;2.52;;
32491;SDS011;20605;49.742;18.802;2022-07-10T07:51:53;2.55;;;2.35;;
32491;SDS011;20605;49.742;18.802;2022-07-10T07:54:34;2.58;;;2.37;;
32491;SDS011;20605;49.742;18.802;2022-07-10T07:57:41;3.15;;;2.65;;
32491;SDS011;20605;49.742;18.802;2022-07-10T08:00:28;2.72;;;2.00;;
32491;SDS011;20605;49.742;18.802;2022-07-10T08:03:15;4.72;;;2.27;;
32491;SDS011;20605;49.742;18.802;2022-07-10T08:05:51;7.65;;;2.37;;
32491;SDS011;20605;49.742;18.802;2022-07-10T08:08:18;2.92;;;2.20;;
32491;SDS011;20605;49.742;18.802;2022-07-10T08:10:48;5.30;;;2.12;;
32491;SDS011;20605;49.742;18.802;2022-07-10T08:13:18;3.55;;;1.95;;
32491;SDS011;20605;49.742;18.802;2022-07-10T08:15:46;4.65;;;2.10;;
32491;SDS011;20605;49.742;18.802;2022-07-10T08:18:36;2.65;;;2.20;;
32491;SDS011;20605;49.742;18.802;2022-07-10T08:24:18;3.50;;;2.87;;
32491;SDS011;20605;49.742;18.802;2022-07-10T08:26:51;3.98;;;2.00;;
32491;SDS011;20605;49.742;18.802;2022-07-10T08:29:34;3.65;;;1.82;;
32491;SDS011;20605;49.742;18.802;2022-07-10T08:32:35;3.80;;;2.17;;
32491;SDS011;20605;49.742;18.802;2022-07-10T08:38:01;3.52;;;2.00;;
32491;SDS011;20605;49.742;18.802;2022-07-10T08:43:24;3.42;;;1.82;;
32491;SDS011;20605;49.742;18.802;2022-07-10T08:46:17;3.12;;;1.67;;
32491;SDS011;20605;49.742;18.802;2022-07-10T08:49:01;1.52;;;1.42;;
32491;SDS011;20605;49.742;18.802;2022-07-10T08:51:47;3.72;;;1.77;;
32491;SDS011;20605;49.742;18.802;2022-07-10T08:54:40;3.27;;;1.60;;
32491;SDS011;20605;49.742;18.802;2022-07-10T08:57:08;3.35;;;1.90;;
32491;SDS011;20605;49.742;18.802;2022-07-10T08:59:39;4.25;;;2.35;;
32491;SDS011;20605;49.742;18.802;2022-07-10T09:02:06;2.52;;;1.57;;
32491;SDS011;20605;49.742;18.802;2022-07-10T09:04:36;6.12;;;2.30;;
32491;SDS011;20605;49.742;18.802;2022-07-10T09:07:01;5.65;;;2.10;;
32491;SDS011;20605;49.742;18.802;2022-07-10T09:09:29;7.37;;;1.90;;
32491;SDS011;20605;49.742;18.802;2022-07-10T09:11:56;2.98;;;1.72;;
32491;SDS011;20605;49.742;18.802;2022-07-10T09:14:27;2.92;;;1.90;;
32491;SDS011;20605;49.742;18.802;2022-07-10T09:17:03;5.08;;;1.90;;
32491;SDS011;20605;49.742;18.802;2022-07-10T09:19:34;6.17;;;1.95;;
32491;SDS011;20605;49.742;18.802;2022-07-10T09:22:10;3.20;;;2.08;;
32491;SDS011;20605;49.742;18.802;2022-07-10T09:24:39;3.65;;;1.92;;
32491;SDS011;20605;49.742;18.802;2022-07-10T09:27:09;7.90;;;2.05;;
32491;SDS011;20605;49.742;18.802;2022-07-10T09:29:48;2.02;;;1.60;;
32491;SDS011;20605;49.742;18.802;2022-07-10T09:32:25;4.50;;;2.30;;
32491;SDS011;20605;49.742;18.802;2022-07-10T09:34:52;2.45;;;1.70;;
32491;SDS011;20605;49.742;18.802;2022-07-10T09:42:31;3.95;;;1.67;;
32491;SDS011;20605;49.742;18.802;2022-07-10T09:53:00;2.60;;;1.65;;
32491;SDS011;20605;49.742;18.802;2022-07-10T09:55:31;4.45;;;1.82;;
32491;SDS011;20605;49.742;18.802;2022-07-10T09:58:01;3.30;;;2.65;;
32491;SDS011;20605;49.742;18.802;2022-07-10T10:00:33;3.83;;;1.90;;
32491;SDS011;20605;49.742;18.802;2022-07-10T10:03:07;2.72;;;1.90;;
32491;SDS011;20605;49.742;18.802;2022-07-10T10:05:52;3.12;;;2.00;;
32491;SDS011;20605;49.742;18.802;2022-07-10T10:08:24;3.25;;;1.72;;
32491;SDS011;20605;49.742;18.802;2022-07-10T10:10:51;6.97;;;2.15;;
32491;SDS011;20605;49.742;18.802;2022-07-10T10:13:20;3.62;;;1.80;;
32491;SDS011;20605;49.742;18.802;2022-07-10T10:15:49;4.37;;;1.80;;
32491;SDS011;20605;49.742;18.802;2022-07-10T10:18:18;3.22;;;1.80;;
32491;SDS011;20605;49.742;18.802;2022-07-10T10:20:47;3.75;;;2.27;;
32491;SDS011;20605;49.742;18.802;2022-07-10T10:23:15;5.20;;;2.10;;
32491;SDS011;20605;49.742;18.802;2022-07-10T10:25:52;3.17;;;1.82;;
32491;SDS011;20605;49.742;18.802;2022-07-10T10:28:18;4.08;;;1.77;;
32491;SDS011;20605;49.742;18.802;2022-07-10T10:30:52;1.98;;;1.67;;
32491;SDS011;20605;49.742;18.802;2022-07-10T10:36:05;5.12;;;2.10;;
32491;SDS011;20605;49.742;18.802;2022-07-10T10:41:29;4.40;;;2.43;;
32491;SDS011;20605;49.742;18.802;2022-07-10T10:52:23;3.83;;;2.42;;
32491;SDS011;20605;49.742;18.802;2022-07-10T11:00:04;4.72;;;1.90;;
32491;SDS011;20605;49.742;18.802;2022-07-10T11:02:34;3.30;;;1.80;;
32491;SDS011;20605;49.742;18.802;2022-07-10T11:10:29;3.83;;;1.87;;
32491;SDS011;20605;49.742;18.802;2022-07-10T11:15:46;3.70;;;1.75;;
32491;SDS011;20605;49.742;18.802;2022-07-10T11:18:17;3.27;;;1.60;;
32491;SDS011;20605;49.742;18.802;2022-07-10T11:20:48;3.55;;;1.67;;
32491;SDS011;20605;49.742;18.802;2022-07-10T11:26:49;5.03;;;1.82;;
32491;SDS011;20605;49.742;18.802;2022-07-10T11:29:35;7.55;;;2.00;;
32491;SDS011;20605;49.742;18.802;2022-07-10T11:32:04;4.65;;;1.70;;
32491;SDS011;20605;49.742;18.802;2022-07-10T11:34:34;3.60;;;1.80;;
32491;SDS011;20605;49.742;18.802;2022-07-10T11:37:03;3.10;;;1.85;;
32491;SDS011;20605;49.742;18.802;2022-07-10T11:39:43;3.83;;;1.72;;
32491;SDS011;20605;49.742;18.802;2022-07-10T11:42:10;3.30;;;1.70;;
32491;SDS011;20605;49.742;18.802;2022-07-10T11:44:37;5.62;;;1.52;;
32491;SDS011;20605;49.742;18.802;2022-07-10T11:47:04;7.80;;;2.20;;
32491;SDS011;20605;49.742;18.802;2022-07-10T11:49:32;2.83;;;1.50;;
32491;SDS011;20605;49.742;18.802;2022-07-10T11:52:01;3.95;;;2.25;;
32491;SDS011;20605;49.742;18.802;2022-07-10T11:54:29;2.80;;;2.15;;
32491;SDS011;20605;49.742;18.802;2022-07-10T11:56:56;3.55;;;2.30;;
32491;SDS011;20605;49.742;18.802;2022-07-10T11:59:27;3.83;;;1.85;;
32491;SDS011;20605;49.742;18.802;2022-07-10T12:01:55;2.92;;;1.47;;
32491;SDS011;20605;49.742;18.802;2022-07-10T12:04:23;10.45;;;1.20;;
32491;SDS011;20605;49.742;18.802;2022-07-10T12:06:52;4.17;;;1.57;;
32491;SDS011;20605;49.742;18.802;2022-07-10T12:09:21;2.67;;;1.27;;
32491;SDS011;20605;49.742;18.802;2022-07-10T12:12:09;4.92;;;1.55;;
32491;SDS011;20605;49.742;18.802;2022-07-10T12:14:34;5.28;;;1.72;;
32491;SDS011;20605;49.742;18.802;2022-07-10T12:17:01;6.50;;;1.60;;
32491;SDS011;20605;49.742;18.802;2022-07-10T12:19:36;4.58;;;1.67;;
32491;SDS011;20605;49.742;18.802;2022-07-10T12:22:04;2.58;;;1.40;;
32491;SDS011;20605;49.742;18.802;2022-07-10T12:24:31;2.33;;;1.42;;
32491;SDS011;20605;49.742;18.802;2022-07-10T12:26:59;4.22;;;1.90;;
32491;SDS011;20605;49.742;18.802;2022-07-10T12:29:26;4.80;;;1.60;;
32491;SDS011;20605;49.742;18.802;2022-07-10T12:32:00;1.70;;;1.57;;
32491;SDS011;20605;49.742;18.802;2022-07-10T12:34:38;3.10;;;1.50;;
32491;SDS011;20605;49.742;18.802;2022-07-10T12:37:11;1.40;;;1.30;;
32491;SDS011;20605;49.742;18.802;2022-07-10T12:39:46;3.10;;;1.60;;
32491;SDS011;20605;49.742;18.802;2022-07-10T12:47:47;2.12;;;1.20;;
32491;SDS011;20605;49.742;18.802;2022-07-10T12:50:16;2.47;;;1.05;;
32491;SDS011;20605;49.742;18.802;2022-07-10T12:52:44;2.67;;;1.10;;
32491;SDS011;20605;49.742;18.802;2022-07-10T12:55:11;4.35;;;1.40;;
32491;SDS011;20605;49.742;18.802;2022-07-10T12:57:57;6.12;;;2.67;;
32491;SDS011;20605;49.742;18.802;2022-07-10T13:00:26;3.98;;;1.72;;
32491;SDS011;20605;49.742;18.802;2022-07-10T13:02:59;1.80;;;1.50;;
32491;SDS011;20605;49.742;18.802;2022-07-10T13:05:32;2.60;;;1.70;;
32491;SDS011;20605;49.742;18.802;2022-07-10T13:08:11;2.15;;;1.30;;
32491;SDS011;20605;49.742;18.802;2022-07-10T13:10:44;2.50;;;1.40;;
32491;SDS011;20605;49.742;18.802;2022-07-10T13:13:13;3.62;;;1.65;;
32491;SDS011;20605;49.742;18.802;2022-07-10T13:15:40;1.37;;;1.05;;
32491;SDS011;20605;49.742;18.802;2022-07-10T13:18:16;1.27;;;1.17;;
32491;SDS011;20605;49.742;18.802;2022-07-10T13:20:51;1.87;;;1.30;;
32491;SDS011;20605;49.742;18.802;2022-07-10T13:23:17;1.67;;;1.05;;
32491;SDS011;20605;49.742;18.802;2022-07-10T13:25:48;2.10;;;1.90;;
32491;SDS011;20605;49.742;18.802;2022-07-10T13:28:15;1.72;;;1.35;;
32491;SDS011;20605;49.742;18.802;2022-07-10T13:30:42;3.02;;;1.50;;
32491;SDS011;20605;49.742;18.802;2022-07-10T13:33:10;4.25;;;1.57;;
32491;SDS011;20605;49.742;18.802;2022-07-10T13:35:37;3.40;;;1.30;;
32491;SDS011;20605;49.742;18.802;2022-07-10T13:38:05;1.85;;;1.40;;
32491;SDS011;20605;49.742;18.802;2022-07-10T13:40:33;1.85;;;1.20;;
32491;SDS011;20605;49.742;18.802;2022-07-10T13:43:02;2.25;;;0.80;;
32491;SDS011;20605;49.742;18.802;2022-07-10T13:45:30;0.93;;;0.82;;
32491;SDS011;20605;49.742;18.802;2022-07-10T13:48:02;2.33;;;0.98;;
32491;SDS011;20605;49.742;18.802;2022-07-10T13:50:29;1.50;;;0.75;;
32491;SDS011;20605;49.742;18.802;2022-07-10T13:52:56;2.55;;;1.00;;
32491;SDS011;20605;49.742;18.802;2022-07-10T13:55:23;7.17;;;0.90;;
32491;SDS011;20605;49.742;18.802;2022-07-10T13:57:50;0.98;;;0.68;;
32491;SDS011;20605;49.742;18.802;2022-07-10T14:00:17;1.52;;;0.90;;
32491;SDS011;20605;49.742;18.802;2022-07-10T14:02:44;0.93;;;0.85;;
32491;SDS011;20605;49.742;18.802;2022-07-10T14:05:10;1.17;;;0.88;;
32491;SDS011;20605;49.742;18.802;2022-07-10T14:07:37;3.90;;;0.90;;
32491;SDS011;20605;49.742;18.802;2022-07-10T14:10:04;1.25;;;1.00;;
32491;SDS011;20605;49.742;18.802;2022-07-10T14:12:32;3.10;;;1.00;;
32491;SDS011;20605;49.742;18.802;2022-07-10T14:14:58;2.22;;;1.20;;
32491;SDS011;20605;49.742;18.802;2022-07-10T14:17:26;2.25;;;1.10;;
32491;SDS011;20605;49.742;18.802;2022-07-10T14:19:53;2.12;;;0.93;;
32491;SDS011;20605;49.742;18.802;2022-07-10T14:22:20;2.25;;;0.90;;
32491;SDS011;20605;49.742;18.802;2022-07-10T14:24:48;2.02;;;1.20;;
32491;SDS011;20605;49.742;18.802;2022-07-10T14:27:14;2.02;;;1.10;;
32491;SDS011;20605;49.742;18.802;2022-07-10T14:29:41;1.37;;;0.70;;
32491;SDS011;20605;49.742;18.802;2022-07-10T14:32:08;4.58;;;1.05;;
32491;SDS011;20605;49.742;18.802;2022-07-10T14:34:36;3.22;;;0.88;;
32491;SDS011;20605;49.742;18.802;2022-07-10T14:37:02;0.85;;;0.85;;
32491;SDS011;20605;49.742;18.802;2022-07-10T14:39:30;2.30;;;1.30;;
32491;SDS011;20605;49.742;18.802;2022-07-10T14:41:56;2.45;;;1.07;;
32491;SDS011;20605;49.742;18.802;2022-07-10T14:44:23;1.72;;;0.93;;
32491;SDS011;20605;49.742;18.802;2022-07-10T14:46:50;2.80;;;0.95;;
32491;SDS011;20605;49.742;18.802;2022-07-10T14:49:16;4.30;;;1.22;;
32491;SDS011;20605;49.742;18.802;2022-07-10T14:51:43;1.95;;;1.10;;
32491;SDS011;20605;49.742;18.802;2022-07-10T14:54:10;1.40;;;0.98;;
32491;SDS011;20605;49.742;18.802;2022-07-10T14:56:37;1.42;;;1.20;;
32491;SDS011;20605;49.742;18.802;2022-07-10T14:59:04;1.15;;;1.02;;
32491;SDS011;20605;49.742;18.802;2022-07-10T15:01:31;1.07;;;0.85;;
32491;SDS011;20605;49.742;18.802;2022-07-10T15:03:57;1.67;;;0.95;;
32491;SDS011;20605;49.742;18.802;2022-07-10T15:06:24;1.52;;;0.70;;
32491;SDS011;20605;49.742;18.802;2022-07-10T15:08:51;2.30;;;1.10;;
32491;SDS011;20605;49.742;18.802;2022-07-10T15:11:18;2.35;;;1.07;;
32491;SDS011;20605;49.742;18.802;2022-07-10T15:13:49;1.65;;;0.85;;
32491;SDS011;20605;49.742;18.802;2022-07-10T15:16:17;1.12;;;0.90;;
32491;SDS011;20605;49.742;18.802;2022-07-10T15:18:44;1.30;;;0.90;;
32491;SDS011;20605;49.742;18.802;2022-07-10T15:21:11;1.77;;;1.00;;
32491;SDS011;20605;49.742;18.802;2022-07-10T15:23:38;1.35;;;0.90;;
32491;SDS011;20605;49.742;18.802;2022-07-10T15:26:05;1.45;;;0.90;;
32491;SDS011;20605;49.742;18.802;2022-07-10T15:28:32;1.60;;;0.72;;
32491;SDS011;20605;49.742;18.802;2022-07-10T15:30:58;6.37;;;1.27;;
32491;SDS011;20605;49.742;18.802;2022-07-10T15:33:28;3.87;;;1.10;;
32491;SDS011;20605;49.742;18.802;2022-07-10T15:35:55;1.57;;;1.10;;
32491;SDS011;20605;49.742;18.802;2022-07-10T15:38:21;1.62;;;1.00;;
32491;SDS011;20605;49.742;18.802;2022-07-10T15:40:48;0.70;;;0.70;;
32491;SDS011;20605;49.742;18.802;2022-07-10T15:43:15;0.60;;;0.60;;
32491;SDS011;20605;49.742;18.802;2022-07-10T15:45:42;1.45;;;0.75;;
32491;SDS011;20605;49.742;18.802;2022-07-10T15:48:09;1.52;;;0.62;;
32491;SDS011;20605;49.742;18.802;2022-07-10T15:50:37;2.25;;;0.78;;
32491;SDS011;20605;49.742;18.802;2022-07-10T15:53:04;1.22;;;0.70;;
32491;SDS011;20605;49.742;18.802;2022-07-10T15:55:30;1.85;;;0.82;;
32491;SDS011;20605;49.742;18.802;2022-07-10T15:57:57;1.50;;;0.72;;
32491;SDS011;20605;49.742;18.802;2022-07-10T16:00:24;0.60;;;0.60;;
32491;SDS011;20605;49.742;18.802;2022-07-10T16:02:51;0.70;;;0.70;;
32491;SDS011;20605;49.742;18.802;2022-07-10T16:05:19;1.00;;;0.70;;
32491;SDS011;20605;49.742;18.802;2022-07-10T16:07:45;1.67;;;1.40;;
32491;SDS011;20605;49.742;18.802;2022-07-10T16:10:12;1.98;;;1.70;;